sensor_id;sensor_type;location;lat;lon;timestamp;pressure;altitude;pressure_sealevel;temperature;humidity
24825;BME280;12910;57.690;11.974;2023-04-24T00:00:00;99500.00;;;8.57;100.00
24825;BME280;12910;57.690;11.974;2023-04-24T00:02:26;99493.16;;;8.57;100.00
24825;BME280;12910;57.690;11.974;2023-04-24T00:04:51;99470.16;;;8.50;100.00
24825;BME280;12910;57.690;11.974;2023-04-24T00:07:17;99489.81;;;8.60;100.00
24825;BME280;12910;57.690;11.974;2023-04-24T00:09:43;99493.22;;;8.67;100.00
24825;BME280;12910;57.690;11.974;2023-04-24T00:12:09;99471.03;;;8.55;100.00
24825;BME280;12910;57.690;11.974;2023-04-24T00:14:34;99476.13;;;8.55;100.00
24825;BME280;12910;57.690;11.974;2023-04-24T00:17:00;99478.69;;;8.55;100.00
24825;BME280;12910;57.690;11.974;2023-04-24T00:19:27;99466.72;;;8.48;100.00
24825;BME280;12910;57.690;11.974;2023-04-24T00:21:53;99478.69;;;8.56;100.00
24825;BME280;12910;57.690;11.974;2023-04-24T00:24:20;99469.25;;;8.46;100.00
24825;BME280;12910;57.690;11.974;2023-04-24T00:26:45;99461.50;;;8.37;100.00
24825;BME280;12910;57.690;11.974;2023-04-24T00:29:10;99456.41;;;8.34;100.00
24825;BME280;12910;57.690;11.974;2023-04-24T00:31:36;99472.63;;;8.40;100.00
24825;BME280;12910;57.690;11.974;2023-04-24T00:34:02;99464.06;;;8.35;100.00
24825;BME280;12910;57.690;11.974;2023-04-24T00:36:27;99463.19;;;8.32;100.00
24825;BME280;12910;57.690;11.974;2023-04-24T00:38:54;99453.81;;;8.32;100.00
24825;BME280;12910;57.690;11.974;2023-04-24T00:41:19;99470.94;;;8.44;100.00
24825;BME280;12910;57.690;11.974;2023-04-24T00:43:46;99448.75;;;8.35;100.00
24825;BME280;12910;57.690;11.974;2023-04-24T00:46:12;99458.13;;;8.36;100.00
24825;BME280;12910;57.690;11.974;2023-04-24T00:48:39;99467.53;;;8.40;100.00
24825;BME280;12910;57.690;11.974;2023-04-24T00:51:04;99464.03;;;8.29;100.00
24825;BME280;12910;57.690;11.974;2023-04-24T00:53:30;99458.03;;;8.22;100.00
24825;BME280;12910;57.690;11.974;2023-04-24T00:55:56;99468.28;;;8.27;100.00
24825;BME280;12910;57.690;11.974;2023-04-24T00:58:22;99471.69;;;8.29;100.00
24825;BME280;12910;57.690;11.974;2023-04-24T01:00:48;99463.13;;;8.22;100.00
24825;BME280;12910;57.690;11.974;2023-04-24T01:03:15;99477.66;;;8.31;100.00
24825;BME280;12910;57.690;11.974;2023-04-24T01:05:41;99474.25;;;8.32;100.00
24825;BME280;12910;57.690;11.974;2023-04-24T01:08:07;99465.75;;;8.32;100.00
24825;BME280;12910;57.690;11.974;2023-04-24T01:10:34;99464.06;;;8.35;100.00
24825;BME280;12910;57.690;11.974;2023-04-24T01:12:59;99466.59;;;8.31;100.00
24825;BME280;12910;57.690;11.974;2023-04-24T01:15:25;99470.84;;;8.32;100.00
24825;BME280;12910;57.690;11.974;2023-04-24T01:17:51;99471.69;;;8.31;100.00
24825;BME280;12910;57.690;11.974;2023-04-24T01:20:17;99458.91;;;8.27;100.00
24825;BME280;12910;57.690;11.974;2023-04-24T01:22:42;99465.75;;;8.32;100.00
24825;BME280;12910;57.690;11.974;2023-04-24T01:25:08;99451.25;;;8.24;100.00
24825;BME280;12910;57.690;11.974;2023-04-24T01:27:34;99450.38;;;8.24;100.00
24825;BME280;12910;57.690;11.974;2023-04-24T01:29:59;99447.81;;;8.24;100.00
24825;BME280;12910;57.690;11.974;2023-04-24T01:32:25;99457.25;;;8.31;100.00
24825;BME280;12910;57.690;11.974;2023-04-24T01:34:51;99482.84;;;8.40;100.00
24825;BME280;12910;57.690;11.974;2023-04-24T01:37:16;99452.13;;;8.31;100.00
24825;BME280;12910;57.690;11.974;2023-04-24T01:39:43;99441.03;;;8.26;100.00
24825;BME280;12910;57.690;11.974;2023-04-24T01:42:09;99445.25;;;8.24;100.00
24825;BME280;12910;57.690;11.974;2023-04-24T01:44:34;99437.59;;;8.21;100.00
24825;BME280;12910;57.690;11.974;2023-04-24T01:47:00;99453.78;;;8.26;100.00
24825;BME280;12910;57.690;11.974;2023-04-24T01:49:26;99463.19;;;8.33;100.00
24825;BME280;12910;57.690;11.974;2023-04-24T01:51:52;99435.06;;;8.24;100.00
24825;BME280;12910;57.690;11.974;2023-04-24T01:54:17;99448.69;;;8.26;100.00
24825;BME280;12910;57.690;11.974;2023-04-24T01:56:43;99445.28;;;8.27;100.00
24825;BME280;12910;57.690;11.974;2023-04-24T01:59:10;99440.19;;;8.27;100.00
24825;BME280;12910;57.690;11.974;2023-04-24T02:01:37;99429.09;;;8.22;100.00
24825;BME280;12910;57.690;11.974;2023-04-24T02:04:03;99440.16;;;8.24;100.00
24825;BME280;12910;57.690;11.974;2023-04-24T02:06:29;99427.31;;;8.07;100.00
24825;BME280;12910;57.690;11.974;2023-04-24T02:08:56;99442.66;;;8.11;100.00
24825;BME280;12910;57.690;11.974;2023-04-24T02:11:21;99433.25;;;8.07;100.00
24825;BME280;12910;57.690;11.974;2023-04-24T02:13:47;99435.84;;;8.12;100.00
24825;BME280;12910;57.690;11.974;2023-04-24T02:16:12;99431.59;;;8.16;100.00
24825;BME280;12910;57.690;11.974;2023-04-24T02:18:37;99438.44;;;8.20;100.00
24825;BME280;12910;57.690;11.974;2023-04-24T02:21:03;99429.09;;;8.17;100.00
24825;BME280;12910;57.690;11.974;2023-04-24T02:23:28;99426.56;;;8.22;100.00
24825;BME280;12910;57.690;11.974;2023-04-24T02:25:53;99429.97;;;8.27;100.00
24825;BME280;12910;57.690;11.974;2023-04-24T02:28:19;99400.09;;;8.14;100.00
24825;BME280;12910;57.690;11.974;2023-04-24T02:30:45;99403.53;;;8.13;100.00
24825;BME280;12910;57.690;11.974;2023-04-24T02:33:11;99424.88;;;8.25;100.00
24825;BME280;12910;57.690;11.974;2023-04-24T02:35:36;99432.50;;;8.24;100.00
24825;BME280;12910;57.690;11.974;2023-04-24T02:38:02;99423.97;;;8.19;100.00
24825;BME280;12910;57.690;11.974;2023-04-24T02:40:28;99428.25;;;8.20;100.00
24825;BME280;12910;57.690;11.974;2023-04-24T02:42:54;99400.94;;;8.09;100.00
24825;BME280;12910;57.690;11.974;2023-04-24T02:45:19;99415.50;;;8.27;100.00
24825;BME280;12910;57.690;11.974;2023-04-24T02:47:45;99407.00;;;8.25;100.00
24825;BME280;12910;57.690;11.974;2023-04-24T02:50:10;99399.31;;;8.22;100.00
24825;BME280;12910;57.690;11.974;2023-04-24T02:52:35;99387.41;;;8.20;100.00
24825;BME280;12910;57.690;11.974;2023-04-24T02:55:01;99395.97;;;8.28;100.00
24825;BME280;12910;57.690;11.974;2023-04-24T02:57:27;99388.28;;;8.23;100.00
24825;BME280;12910;57.690;11.974;2023-04-24T02:59:52;99389.97;;;8.27;100.00
24825;BME280;12910;57.690;11.974;2023-04-24T03:02:17;99406.19;;;8.34;100.00
24825;BME280;12910;57.690;11.974;2023-04-24T03:04:43;99378.03;;;8.20;100.00
24825;BME280;12910;57.690;11.974;2023-04-24T03:07:08;99385.72;;;8.25;100.00
24825;BME280;12910;57.690;11.974;2023-04-24T03:09:34;99390.00;;;8.32;100.00
24825;BME280;12910;57.690;11.974;2023-04-24T03:11:59;99372.97;;;8.22;100.00
24825;BME280;12910;57.690;11.974;2023-04-24T03:14:25;99384.00;;;8.21;100.00
24825;BME280;12910;57.690;11.974;2023-04-24T03:16:50;99378.06;;;8.22;100.00
24825;BME280;12910;57.690;11.974;2023-04-24T03:19:16;99380.63;;;8.22;100.00
24825;BME280;12910;57.690;11.974;2023-04-24T03:21:41;99373.78;;;8.18;100.00
24825;BME280;12910;57.690;11.974;2023-04-24T03:24:10;99377.19;;;8.23;100.00
24825;BME280;12910;57.690;11.974;2023-04-24T03:26:35;99363.53;;;8.15;100.00
24825;BME280;12910;57.690;11.974;2023-04-24T03:29:01;99378.94;;;8.27;100.00
24825;BME280;12910;57.690;11.974;2023-04-24T03:31:27;99369.53;;;8.23;100.00
24825;BME280;12910;57.690;11.974;2023-04-24T03:33:53;99366.97;;;8.23;100.00
24825;BME280;12910;57.690;11.974;2023-04-24T03:36:18;99349.94;;;8.16;100.00
24825;BME280;12910;57.690;11.974;2023-04-24T03:38:44;99349.09;;;8.17;100.00
24825;BME280;12910;57.690;11.974;2023-04-24T03:41:10;99351.66;;;8.17;100.00
24825;BME280;12910;57.690;11.974;2023-04-24T03:43:35;99346.53;;;8.10;100.00
24825;BME280;12910;57.690;11.974;2023-04-24T03:46:01;99359.34;;;8.26;100.00
24825;BME280;12910;57.690;11.974;2023-04-24T03:48:26;99345.69;;;8.16;100.00
24825;BME280;12910;57.690;11.974;2023-04-24T03:50:52;99341.44;;;8.17;100.00
24825;BME280;12910;57.690;11.974;2023-04-24T03:53:17;99353.38;;;8.21;100.00
24825;BME280;12910;57.690;11.974;2023-04-24T03:55:42;99346.53;;;8.17;100.00
24825;BME280;12910;57.690;11.974;2023-04-24T03:58:08;99363.59;;;8.21;100.00
24825;BME280;12910;57.690;11.974;2023-04-24T04:00:33;99343.09;;;8.08;100.00
24825;BME280;12910;57.690;11.974;2023-04-24T04:02:59;99356.78;;;8.23;100.00
24825;BME280;12910;57.690;11.974;2023-04-24T04:05:25;99342.31;;;8.19;100.00
24825;BME280;12910;57.690;11.974;2023-04-24T04:07:50;99346.56;;;8.23;100.00
24825;BME280;12910;57.690;11.974;2023-04-24T04:10:15;99362.81;;;8.36;100.00
24825;BME280;12910;57.690;11.974;2023-04-24T04:12:42;99341.47;;;8.26;100.00
24825;BME280;12910;57.690;11.974;2023-04-24T04:15:08;99365.41;;;8.40;100.00
24825;BME280;12910;57.690;11.974;2023-04-24T04:17:33;99347.50;;;8.36;100.00
24825;BME280;12910;57.690;11.974;2023-04-24T04:19:58;99347.50;;;8.39;100.00
24825;BME280;12910;57.690;11.974;2023-04-24T04:22:24;99352.66;;;8.48;100.00
24825;BME280;12910;57.690;11.974;2023-04-24T04:24:49;99344.97;;;8.47;100.00
24825;BME280;12910;57.690;11.974;2023-04-24T04:27:16;99336.50;;;8.48;100.00
24825;BME280;12910;57.690;11.974;2023-04-24T04:29:41;99321.13;;;8.45;100.00
24825;BME280;12910;57.690;11.974;2023-04-24T04:32:07;99324.56;;;8.47;100.00
24825;BME280;12910;57.690;11.974;2023-04-24T04:34:32;99329.66;;;8.47;100.00
24825;BME280;12910;57.690;11.974;2023-04-24T04:36:58;99330.50;;;8.46;100.00
24825;BME280;12910;57.690;11.974;2023-04-24T04:39:27;99334.84;;;8.54;100.00
24825;BME280;12910;57.690;11.974;2023-04-24T04:41:53;99340.78;;;8.61;100.00
24825;BME280;12910;57.690;11.974;2023-04-24T04:44:19;99328.88;;;8.51;100.00
24825;BME280;12910;57.690;11.974;2023-04-24T04:46:44;99318.59;;;8.46;100.00
24825;BME280;12910;57.690;11.974;2023-04-24T04:49:10;99322.06;;;8.54;100.00
24825;BME280;12910;57.690;11.974;2023-04-24T04:51:36;99336.56;;;8.66;100.00
24825;BME280;12910;57.690;11.974;2023-04-24T04:54:01;99340.81;;;8.69;100.00
24825;BME280;12910;57.690;11.974;2023-04-24T04:56:27;99345.09;;;8.68;100.00
24825;BME280;12910;57.690;11.974;2023-04-24T04:58:52;99326.34;;;8.60;100.00
24825;BME280;12910;57.690;11.974;2023-04-24T05:01:18;99332.28;;;8.61;100.00
24825;BME280;12910;57.690;11.974;2023-04-24T05:03:43;99328.88;;;8.63;100.00
24825;BME280;12910;57.690;11.974;2023-04-24T05:06:09;99334.84;;;8.62;100.00
24825;BME280;12910;57.690;11.974;2023-04-24T05:08:34;99331.47;;;8.60;100.00
24825;BME280;12910;57.690;11.974;2023-04-24T05:11:00;99309.28;;;8.56;100.00
24825;BME280;12910;57.690;11.974;2023-04-24T05:13:25;99316.97;;;8.62;100.00
24825;BME280;12910;57.690;11.974;2023-04-24T05:15:50;99325.50;;;8.67;100.00
24825;BME280;12910;57.690;11.974;2023-04-24T05:18:16;99329.78;;;8.68;100.00
24825;BME280;12910;57.690;11.974;2023-04-24T05:20:41;99328.06;;;8.73;100.00
24825;BME280;12910;57.690;11.974;2023-04-24T05:23:09;99319.56;;;8.68;100.00
24825;BME280;12910;57.690;11.974;2023-04-24T05:25:34;99318.72;;;8.76;100.00
24825;BME280;12910;57.690;11.974;2023-04-24T05:28:01;99305.94;;;8.69;100.00
24825;BME280;12910;57.690;11.974;2023-04-24T05:30:27;99315.31;;;8.77;100.00
24825;BME280;12910;57.690;11.974;2023-04-24T05:32:52;99306.78;;;8.73;100.00
24825;BME280;12910;57.690;11.974;2023-04-24T05:35:17;99314.44;;;8.75;100.00
24825;BME280;12910;57.690;11.974;2023-04-24T05:37:44;99307.66;;;8.77;100.00
24825;BME280;12910;57.690;11.974;2023-04-24T05:40:10;99315.34;;;8.84;100.00
24825;BME280;12910;57.690;11.974;2023-04-24T05:42:36;99327.28;;;8.96;100.00
24825;BME280;12910;57.690;11.974;2023-04-24T05:45:01;99306.81;;;8.84;100.00
24825;BME280;12910;57.690;11.974;2023-04-24T05:47:27;99310.22;;;8.86;100.00
24825;BME280;12910;57.690;11.974;2023-04-24T05:49:52;99306.81;;;8.87;100.00
24825;BME280;12910;57.690;11.974;2023-04-24T05:52:18;99323.00;;;8.95;100.00
24825;BME280;12910;57.690;11.974;2023-04-24T05:54:43;99302.56;;;8.86;100.00
24825;BME280;12910;57.690;11.974;2023-04-24T05:57:09;99288.91;;;8.78;100.00
24825;BME280;12910;57.690;11.974;2023-04-24T05:59:37;99317.03;;;8.93;100.00
24825;BME280;12910;57.690;11.974;2023-04-24T06:02:03;99314.50;;;8.93;100.00
24825;BME280;12910;57.690;11.974;2023-04-24T06:04:29;99302.56;;;8.89;100.00
24825;BME280;12910;57.690;11.974;2023-04-24T06:06:55;99294.88;;;8.83;100.00
24825;BME280;12910;57.690;11.974;2023-04-24T06:09:24;99306.81;;;8.95;100.00
24825;BME280;12910;57.690;11.974;2023-04-24T06:11:50;99292.34;;;8.86;100.00
24825;BME280;12910;57.690;11.974;2023-04-24T06:14:18;99287.22;;;8.86;100.00
24825;BME280;12910;57.690;11.974;2023-04-24T06:16:43;99293.19;;;8.89;100.00
24825;BME280;12910;57.690;11.974;2023-04-24T06:19:09;99277.00;;;8.87;100.00
24825;BME280;12910;57.690;11.974;2023-04-24T06:21:34;99285.53;;;8.94;100.00
24825;BME280;12910;57.690;11.974;2023-04-24T06:23:59;99282.13;;;8.97;100.00
24825;BME280;12910;57.690;11.974;2023-04-24T06:26:25;99293.22;;;9.03;100.00
24825;BME280;12910;57.690;11.974;2023-04-24T06:28:52;99265.94;;;8.98;100.00
24825;BME280;12910;57.690;11.974;2023-04-24T06:31:19;99268.53;;;9.09;100.00
24825;BME280;12910;57.690;11.974;2023-04-24T06:33:45;99266.81;;;9.12;100.00
24825;BME280;12910;57.690;11.974;2023-04-24T06:36:11;99257.44;;;9.07;100.00
24825;BME280;12910;57.690;11.974;2023-04-24T06:38:36;99271.91;;;9.14;100.00
24825;BME280;12910;57.690;11.974;2023-04-24T06:41:02;99268.50;;;9.19;100.00
24825;BME280;12910;57.690;11.974;2023-04-24T06:43:30;99273.63;;;9.24;100.00
24825;BME280;12910;57.690;11.974;2023-04-24T06:45:56;99280.44;;;9.31;100.00
24825;BME280;12910;57.690;11.974;2023-04-24T06:48:22;99273.63;;;9.33;100.00
24825;BME280;12910;57.690;11.974;2023-04-24T06:50:47;99272.75;;;9.48;100.00
24825;BME280;12910;57.690;11.974;2023-04-24T06:53:12;99276.16;;;9.55;100.00
24825;BME280;12910;57.690;11.974;2023-04-24T06:55:39;99262.50;;;9.53;100.00
24825;BME280;12910;57.690;11.974;2023-04-24T06:58:05;99271.88;;;9.66;100.00
24825;BME280;12910;57.690;11.974;2023-04-24T07:00:31;99265.06;;;9.62;100.00
24825;BME280;12910;57.690;11.974;2023-04-24T07:02:56;99271.00;;;9.67;100.00
24825;BME280;12910;57.690;11.974;2023-04-24T07:05:22;99297.41;;;9.79;100.00
24825;BME280;12910;57.690;11.974;2023-04-24T07:07:48;99286.38;;;9.64;100.00
24825;BME280;12910;57.690;11.974;2023-04-24T07:10:15;99285.53;;;9.62;100.00
24825;BME280;12910;57.690;11.974;2023-04-24T07:12:40;99287.22;;;9.60;100.00
24825;BME280;12910;57.690;11.974;2023-04-24T07:15:06;99275.28;;;9.50;100.00
24825;BME280;12910;57.690;11.974;2023-04-24T07:17:34;99292.34;;;9.59;100.00
24825;BME280;12910;57.690;11.974;2023-04-24T07:20:00;99292.34;;;9.57;100.00
24825;BME280;12910;57.690;11.974;2023-04-24T07:22:25;99292.34;;;9.51;100.00
24825;BME280;12910;57.690;11.974;2023-04-24T07:24:50;99300.88;;;9.50;100.00
24825;BME280;12910;57.690;11.974;2023-04-24T07:27:16;99294.91;;;9.46;100.00
24825;BME280;12910;57.690;11.974;2023-04-24T07:29:42;99323.03;;;9.48;100.00
24825;BME280;12910;57.690;11.974;2023-04-24T07:32:07;99298.34;;;9.39;100.00
24825;BME280;12910;57.690;11.974;2023-04-24T07:34:33;99311.09;;;9.41;100.00
24825;BME280;12910;57.690;11.974;2023-04-24T07:36:58;99314.50;;;9.40;100.00
24825;BME280;12910;57.690;11.974;2023-04-24T07:39:24;99317.06;;;9.35;100.00
24825;BME280;12910;57.690;11.974;2023-04-24T07:41:50;99324.75;;;9.30;100.00
24825;BME280;12910;57.690;11.974;2023-04-24T07:44:15;99323.06;;;9.22;100.00
24825;BME280;12910;57.690;11.974;2023-04-24T07:46:41;99338.38;;;9.18;100.00
24825;BME280;12910;57.690;11.974;2023-04-24T07:49:06;99343.50;;;9.12;100.00
24825;BME280;12910;57.690;11.974;2023-04-24T07:51:32;99346.03;;;9.09;100.00
24825;BME280;12910;57.690;11.974;2023-04-24T07:54:03;99377.56;;;9.17;100.00
24825;BME280;12910;57.690;11.974;2023-04-24T07:56:28;99351.97;;;8.99;100.00
24825;BME280;12910;57.690;11.974;2023-04-24T07:58:56;99376.72;;;9.08;100.00
24825;BME280;12910;57.690;11.974;2023-04-24T08:01:21;99378.38;;;8.99;100.00
24825;BME280;12910;57.690;11.974;2023-04-24T08:03:46;99380.94;;;8.93;100.00
24825;BME280;12910;57.690;11.974;2023-04-24T08:06:12;99386.03;;;8.93;100.00
24825;BME280;12910;57.690;11.974;2023-04-24T08:08:37;99391.16;;;8.93;100.00
24825;BME280;12910;57.690;11.974;2023-04-24T08:11:03;99379.22;;;8.92;100.00
24825;BME280;12910;57.690;11.974;2023-04-24T08:13:28;99393.72;;;8.99;100.00
24825;BME280;12910;57.690;11.974;2023-04-24T08:15:54;99399.69;;;9.04;100.00
24825;BME280;12910;57.690;11.974;2023-04-24T08:18:19;99378.38;;;8.92;100.00
24825;BME280;12910;57.690;11.974;2023-04-24T08:20:44;99372.38;;;8.86;100.00
24825;BME280;12910;57.690;11.974;2023-04-24T08:23:10;99375.78;;;8.84;100.00
24825;BME280;12910;57.690;11.974;2023-04-24T08:25:35;99373.22;;;8.85;100.00
24825;BME280;12910;57.690;11.974;2023-04-24T08:28:06;99369.81;;;8.77;100.00
24825;BME280;12910;57.690;11.974;2023-04-24T08:30:33;99382.63;;;8.88;100.00
24825;BME280;12910;57.690;11.974;2023-04-24T08:32:59;99361.28;;;8.72;100.00
24825;BME280;12910;57.690;11.974;2023-04-24T08:35:24;99381.75;;;8.80;100.00
24825;BME280;12910;57.690;11.974;2023-04-24T08:37:51;99357.88;;;8.70;100.00
24825;BME280;12910;57.690;11.974;2023-04-24T08:40:17;99363.84;;;8.77;100.00
24825;BME280;12910;57.690;11.974;2023-04-24T08:42:43;99357.91;;;8.78;100.00
24825;BME280;12910;57.690;11.974;2023-04-24T08:45:10;99365.59;;;8.87;100.00
24825;BME280;12910;57.690;11.974;2023-04-24T08:47:38;99367.31;;;8.94;100.00
24825;BME280;12910;57.690;11.974;2023-04-24T08:50:03;99351.97;;;8.83;100.00
24825;BME280;12910;57.690;11.974;2023-04-24T08:52:32;99344.28;;;8.80;100.00
24825;BME280;12910;57.690;11.974;2023-04-24T08:54:59;99356.25;;;8.94;100.00
24825;BME280;12910;57.690;11.974;2023-04-24T08:57:25;99348.56;;;8.92;100.00
24825;BME280;12910;57.690;11.974;2023-04-24T08:59:53;99354.50;;;8.89;100.00
24825;BME280;12910;57.690;11.974;2023-04-24T09:02:18;99347.69;;;8.82;100.00
24825;BME280;12910;57.690;11.974;2023-04-24T09:04:45;99348.53;;;8.83;100.00
24825;BME280;12910;57.690;11.974;2023-04-24T09:07:14;99346.84;;;8.91;100.00
24825;BME280;12910;57.690;11.974;2023-04-24T09:09:42;99329.78;;;8.75;100.00
24825;BME280;12910;57.690;11.974;2023-04-24T09:12:07;99347.66;;;8.81;100.00
24825;BME280;12910;57.690;11.974;2023-04-24T09:14:35;99345.09;;;8.81;100.00
24825;BME280;12910;57.690;11.974;2023-04-24T09:17:03;99324.66;;;8.68;100.00
24825;BME280;12910;57.690;11.974;2023-04-24T09:19:29;99320.44;;;8.77;100.00
24825;BME280;12910;57.690;11.974;2023-04-24T09:21:54;99317.03;;;8.82;100.00
24825;BME280;12910;57.690;11.974;2023-04-24T09:24:21;99305.09;;;8.77;100.00
24825;BME280;12910;57.690;11.974;2023-04-24T09:26:59;99311.06;;;8.79;100.00
24825;BME280;12910;57.690;11.974;2023-04-24T09:29:27;99323.84;;;8.89;100.00
24825;BME280;12910;57.690;11.974;2023-04-24T09:31:52;99294.88;;;8.81;100.00
24825;BME280;12910;57.690;11.974;2023-04-24T09:34:26;99317.91;;;9.04;100.00
24825;BME280;12910;57.690;11.974;2023-04-24T09:36:54;99314.50;;;9.06;100.00
24825;BME280;12910;57.690;11.974;2023-04-24T09:39:20;99300.03;;;9.00;100.00
24825;BME280;12910;57.690;11.974;2023-04-24T09:44:19;99299.19;;;9.04;100.00
24825;BME280;12910;57.690;11.974;2023-04-24T09:46:54;99299.19;;;9.09;100.00
24825;BME280;12910;57.690;11.974;2023-04-24T09:49:23;99300.88;;;9.22;100.00
24825;BME280;12910;57.690;11.974;2023-04-24T09:51:49;99309.44;;;9.32;100.00
24825;BME280;12910;57.690;11.974;2023-04-24T09:54:19;99284.69;;;9.37;100.00
24825;BME280;12910;57.690;11.974;2023-04-24T09:56:47;99278.72;;;9.46;100.00
24825;BME280;12910;57.690;11.974;2023-04-24T09:59:14;99271.88;;;9.52;100.00
24825;BME280;12910;57.690;11.974;2023-04-24T10:01:41;99253.16;;;9.46;100.00
24825;BME280;12910;57.690;11.974;2023-04-24T10:06:47;99255.69;;;9.57;100.00
24825;BME280;12910;57.690;11.974;2023-04-24T10:09:14;99235.25;;;9.46;100.00
24825;BME280;12910;57.690;11.974;2023-04-24T10:11:44;99241.19;;;9.57;100.00
24825;BME280;12910;57.690;11.974;2023-04-24T10:14:21;99230.94;;;9.60;100.00
24825;BME280;12910;57.690;11.974;2023-04-24T10:16:48;99231.81;;;9.58;100.00
24825;BME280;12910;57.690;11.974;2023-04-24T10:19:14;99230.09;;;9.57;100.00
24825;BME280;12910;57.690;11.974;2023-04-24T10:21:42;99213.94;;;9.47;100.00
24825;BME280;12910;57.690;11.974;2023-04-24T10:24:13;99232.66;;;9.61;100.00
24825;BME280;12910;57.690;11.974;2023-04-24T10:26:40;99219.88;;;9.57;100.00
24825;BME280;12910;57.690;11.974;2023-04-24T10:29:05;99224.13;;;9.65;100.00
24825;BME280;12910;57.690;11.974;2023-04-24T10:31:36;99210.41;;;9.79;100.00
24825;BME280;12910;57.690;11.974;2023-04-24T10:34:03;99191.69;;;9.74;100.00
24825;BME280;12910;57.690;11.974;2023-04-24T10:36:30;99202.75;;;9.85;100.00
24825;BME280;12910;57.690;11.974;2023-04-24T10:38:59;99197.56;;;9.96;100.00
24825;BME280;12910;57.690;11.974;2023-04-24T10:41:25;99200.06;;;10.13;100.00
24825;BME280;12910;57.690;11.974;2023-04-24T10:44:11;99215.28;;;10.35;100.00
24825;BME280;12910;57.690;11.974;2023-04-24T10:46:37;99192.25;;;10.36;100.00
24825;BME280;12910;57.690;11.974;2023-04-24T10:49:07;99214.34;;;10.56;100.00
24825;BME280;12910;57.690;11.974;2023-04-24T10:51:53;99196.38;;;10.62;100.00
24825;BME280;12910;57.690;11.974;2023-04-24T10:54:25;99166.50;;;10.59;100.00
24825;BME280;12910;57.690;11.974;2023-04-24T10:56:51;99182.56;;;10.80;100.00
24825;BME280;12910;57.690;11.974;2023-04-24T10:59:35;99176.50;;;10.89;100.00
24825;BME280;12910;57.690;11.974;2023-04-24T11:02:02;99153.53;;;10.78;100.00
24825;BME280;12910;57.690;11.974;2023-04-24T11:04:32;99170.53;;;10.91;100.00
24825;BME280;12910;57.690;11.974;2023-04-24T11:06:57;99150.06;;;10.85;100.00
24825;BME280;12910;57.690;11.974;2023-04-24T11:09:26;99148.28;;;10.94;100.00
24825;BME280;12910;57.690;11.974;2023-04-24T11:12:03;99155.91;;;11.01;100.00
24825;BME280;12910;57.690;11.974;2023-04-24T11:14:29;99151.66;;;10.97;100.00
24825;BME280;12910;57.690;11.974;2023-04-24T11:16:54;99149.06;;;11.00;100.00
24825;BME280;12910;57.690;11.974;2023-04-24T11:19:24;99156.63;;;11.14;100.00
24825;BME280;12910;57.690;11.974;2023-04-24T11:22:01;99144.63;;;11.19;100.00
24825;BME280;12910;57.690;11.974;2023-04-24T11:27:19;99147.78;;;11.43;100.00
24825;BME280;12910;57.690;11.974;2023-04-24T11:32:37;99129.75;;;11.51;100.00
24825;BME280;12910;57.690;11.974;2023-04-24T11:35:08;99127.94;;;11.56;100.00
24825;BME280;12910;57.690;11.974;2023-04-24T11:37:41;99116.88;;;11.52;100.00
24825;BME280;12910;57.690;11.974;2023-04-24T11:40:09;99119.59;;;11.42;100.00
24825;BME280;12910;57.690;11.974;2023-04-24T11:45:02;99119.56;;;11.43;100.00
24825;BME280;12910;57.690;11.974;2023-04-24T11:47:32;99118.59;;;11.52;100.00
24825;BME280;12910;57.690;11.974;2023-04-24T11:49:59;99099.84;;;11.48;100.00
24825;BME280;12910;57.690;11.974;2023-04-24T11:52:26;99104.78;;;11.64;100.00
24825;BME280;12910;57.690;11.974;2023-04-24T11:54:51;99112.34;;;11.73;100.00
24825;BME280;12910;57.690;11.974;2023-04-24T11:57:20;99089.22;;;11.76;100.00
24825;BME280;12910;57.690;11.974;2023-04-24T11:59:47;99107.03;;;11.87;100.00
24825;BME280;12910;57.690;11.974;2023-04-24T12:02:23;99087.41;;;11.81;100.00
24825;BME280;12910;57.690;11.974;2023-04-24T12:04:49;99091.50;;;11.99;100.00
24825;BME280;12910;57.690;11.974;2023-04-24T12:07:14;99077.88;;;11.91;100.00
24825;BME280;12910;57.690;11.974;2023-04-24T12:12:07;99082.91;;;12.00;100.00
24825;BME280;12910;57.690;11.974;2023-04-24T12:14:32;99066.69;;;11.97;100.00
24825;BME280;12910;57.690;11.974;2023-04-24T12:16:57;99082.72;;;12.13;100.00
24825;BME280;12910;57.690;11.974;2023-04-24T12:19:23;99069.06;;;12.09;100.00
24825;BME280;12910;57.690;11.974;2023-04-24T12:22:03;99081.78;;;12.19;100.00
24825;BME280;12910;57.690;11.974;2023-04-24T12:24:30;99064.75;;;12.14;100.00
24825;BME280;12910;57.690;11.974;2023-04-24T12:26:56;99066.47;;;12.12;100.00
24825;BME280;12910;57.690;11.974;2023-04-24T12:29:22;99062.28;;;12.07;100.00
24825;BME280;12910;57.690;11.974;2023-04-24T12:31:48;99063.25;;;11.99;100.00
24825;BME280;12910;57.690;11.974;2023-04-24T12:34:21;99073.47;;;12.01;100.00
24825;BME280;12910;57.690;11.974;2023-04-24T12:36:47;99054.72;;;11.94;100.00
24825;BME280;12910;57.690;11.974;2023-04-24T12:39:19;99065.84;;;11.95;100.00
24825;BME280;12910;57.690;11.974;2023-04-24T12:41:56;99063.25;;;11.98;100.00
24825;BME280;12910;57.690;11.974;2023-04-24T12:44:32;99058.16;;;11.93;100.00
24825;BME280;12910;57.690;11.974;2023-04-24T12:47:00;99064.13;;;11.98;100.00
24825;BME280;12910;57.690;11.974;2023-04-24T12:49:25;99047.06;;;11.93;100.00
24825;BME280;12910;57.690;11.974;2023-04-24T12:51:51;99039.34;;;11.93;100.00
24825;BME280;12910;57.690;11.974;2023-04-24T12:54:17;99049.63;;;11.93;100.00
24825;BME280;12910;57.690;11.974;2023-04-24T12:56:43;99043.75;;;11.84;100.00
24825;BME280;12910;57.690;11.974;2023-04-24T12:59:08;99053.09;;;11.89;100.00